createdAt,value
2023-10-23T00:03:01.226Z,11.82
2023-10-23T00:08:05.589Z,11.85
2023-10-23T00:13:09.485Z,11.86
2023-10-23T00:18:13.393Z,11.88
2023-10-23T00:23:17.443Z,11.88
2023-10-23T00:28:21.472Z,11.89
2023-10-23T00:33:25.662Z,11.88
2023-10-23T00:38:30.350Z,11.88
2023-10-23T00:43:35.749Z,11.87
2023-10-23T00:48:39.683Z,11.87
2023-10-23T00:53:44.277Z,11.88
2023-10-23T00:58:48.513Z,11.87
2023-10-23T01:03:52.253Z,11.84
2023-10-23T01:08:56.403Z,11.84
2023-10-23T01:14:00.306Z,11.80
2023-10-23T01:19:06.391Z,11.80
2023-10-23T01:24:23.764Z,11.85
2023-10-23T01:29:27.886Z,11.82
2023-10-23T01:34:31.693Z,11.85
2023-10-23T01:39:35.739Z,11.86
2023-10-23T01:44:41.790Z,11.86
2023-10-23T01:49:45.406Z,11.85
2023-10-23T01:54:52.135Z,11.85
2023-10-23T01:59:56.774Z,11.87
2023-10-23T02:05:03.721Z,11.88
2023-10-23T02:10:08.170Z,11.88
2023-10-23T02:15:12.253Z,11.88
2023-10-23T02:20:15.928Z,11.87
2023-10-23T02:25:19.546Z,11.81
2023-10-23T02:30:23.415Z,11.82
2023-10-23T02:35:30.678Z,11.79
2023-10-23T02:40:34.218Z,11.76
2023-10-23T02:45:38.973Z,11.76
2023-10-23T02:50:46.231Z,11.72
2023-10-23T02:55:51.010Z,11.69
2023-10-23T03:00:54.888Z,11.66
2023-10-23T03:05:58.879Z,11.64
2023-10-23T03:11:05.046Z,11.62
2023-10-23T03:16:16.243Z,11.54
2023-10-23T03:21:19.863Z,11.43
2023-10-23T03:26:23.882Z,11.33
2023-10-23T03:31:27.744Z,11.28
2023-10-23T03:36:31.753Z,11.30
2023-10-23T03:41:35.574Z,11.27
2023-10-23T03:46:39.733Z,11.27
2023-10-23T03:51:43.648Z,11.25
2023-10-23T03:56:50.659Z,11.23
2023-10-23T04:01:54.241Z,11.21
2023-10-23T04:06:58.182Z,11.19
2023-10-23T04:12:01.877Z,11.15
2023-10-23T04:17:05.930Z,11.09
2023-10-23T04:22:09.354Z,11.02
2023-10-23T04:27:13.114Z,10.96
2023-10-23T04:32:16.893Z,10.95
2023-10-23T04:37:20.768Z,10.96
2023-10-23T04:42:24.486Z,11.01
2023-10-23T04:47:28.203Z,11.08
2023-10-23T04:52:32.595Z,11.13
2023-10-23T04:57:36.238Z,11.11
2023-10-23T05:02:40.438Z,11.11
2023-10-23T05:07:44.185Z,11.11
2023-10-23T05:12:51.061Z,11.06
2023-10-23T05:17:54.953Z,11.04
2023-10-23T05:22:58.940Z,11.02
2023-10-23T05:28:02.570Z,10.97
2023-10-23T05:33:07.028Z,10.89
2023-10-23T05:38:11.315Z,10.83
2023-10-23T05:43:27.743Z,10.81
2023-10-23T05:48:32.703Z,10.77
2023-10-23T05:53:36.621Z,10.77
2023-10-23T05:58:41.362Z,10.77
2023-10-23T06:03:48.188Z,10.75
2023-10-23T06:08:51.687Z,10.76
2023-10-23T06:13:55.518Z,10.79
2023-10-23T06:19:01.030Z,10.82
2023-10-23T06:32:19.681Z,10.96
2023-10-23T06:37:28.823Z,10.85
2023-10-23T06:42:42.471Z,10.85
2023-10-23T06:48:05.390Z,10.83
2023-10-23T06:53:18.522Z,10.87
2023-10-23T06:58:22.939Z,10.96
2023-10-23T07:03:30.064Z,11.16
2023-10-23T07:08:38.772Z,11.26
2023-10-23T07:13:42.616Z,11.33
2023-10-23T07:18:49.225Z,11.31
2023-10-23T07:24:05.649Z,11.25
2023-10-23T07:29:10.153Z,11.22
2023-10-23T07:34:14.146Z,11.22
2023-10-23T07:39:19.748Z,11.28
2023-10-23T07:44:25.920Z,11.30
2023-10-23T07:49:30.038Z,11.29
2023-10-23T07:54:37.243Z,11.31
2023-10-23T07:59:54.703Z,11.31
2023-10-23T08:04:59.088Z,11.43
2023-10-23T08:10:03.943Z,11.64
2023-10-23T08:15:17.748Z,11.66
2023-10-23T08:20:26.201Z,11.75
2023-10-23T08:25:32.956Z,11.80
2023-10-23T08:30:44.628Z,11.83
2023-10-23T08:35:50.336Z,11.74
2023-10-23T08:41:04.748Z,11.80
2023-10-23T08:46:11.740Z,11.93
2023-10-23T08:51:16.553Z,11.98
2023-10-23T08:56:27.749Z,12.04
2023-10-23T09:01:37.827Z,12.03
2023-10-23T09:06:51.327Z,12.05
2023-10-23T09:12:00.322Z,12.13
2023-10-23T09:17:07.262Z,12.23
2023-10-23T09:22:12.034Z,12.34
2023-10-23T09:27:16.716Z,12.54
2023-10-23T09:32:20.799Z,12.69
2023-10-23T09:37:26.101Z,12.83
2023-10-23T09:42:36.782Z,12.98
2023-10-23T09:47:43.881Z,13.11
2023-10-23T09:52:49.532Z,13.18
2023-10-23T09:57:55.890Z,13.26
2023-10-23T10:03:04.315Z,13.30
2023-10-23T10:08:16.319Z,13.42
2023-10-23T10:13:21.804Z,13.54
2023-10-23T10:18:25.680Z,13.66
2023-10-23T10:23:30.560Z,13.71
2023-10-23T10:28:38.045Z,13.86
2023-10-23T10:34:28.651Z,14.01
2023-10-23T10:39:07.067Z,14.08
2023-10-23T10:44:11.672Z,14.16
2023-10-23T10:49:16.947Z,14.29
2023-10-23T11:02:32.690Z,14.63
2023-10-23T11:07:36.979Z,14.54
2023-10-23T11:12:41.047Z,14.42
2023-10-23T11:17:44.557Z,14.39
2023-10-23T11:22:51.661Z,14.38
2023-10-23T11:27:58.814Z,14.45
2023-10-23T11:33:02.714Z,14.55
2023-10-23T11:38:06.482Z,14.46
2023-10-23T11:43:12.379Z,14.19
2023-10-23T11:48:16.334Z,13.94
2023-10-23T11:53:20.309Z,13.87
2023-10-23T11:58:28.736Z,13.93
2023-10-23T12:03:32.467Z,13.98
2023-10-23T12:08:36.436Z,14.07
2023-10-23T12:13:41.446Z,14.18
2023-10-23T12:18:45.272Z,14.25
2023-10-23T12:23:49.151Z,14.27
2023-10-23T12:28:52.511Z,14.21
2023-10-23T12:33:55.965Z,14.10
2023-10-23T12:47:13.714Z,14.06
2023-10-23T12:52:18.413Z,14.00
2023-10-23T12:57:23.164Z,13.91
2023-10-23T13:02:26.852Z,13.92
2023-10-23T13:07:30.929Z,13.99
2023-10-23T13:12:36.236Z,14.06
2023-10-23T13:17:40.208Z,14.12
2023-10-23T13:22:47.134Z,14.00
2023-10-23T13:27:54.244Z,13.90
2023-10-23T13:32:58.212Z,13.82
2023-10-23T13:38:01.915Z,13.73
2023-10-23T13:43:08.253Z,13.61
2023-10-23T13:48:12.290Z,13.50
2023-10-23T13:53:22.404Z,13.44
2023-10-23T13:58:26.866Z,13.38
2023-10-23T14:03:31.649Z,13.32
2023-10-23T14:09:42.373Z,13.29
2023-10-23T14:14:05.600Z,13.31
2023-10-23T14:19:22.610Z,13.34
2023-10-23T14:24:33.786Z,13.38
2023-10-23T14:29:38.353Z,13.43
2023-10-23T14:34:42.299Z,13.40
2023-10-23T14:39:49.247Z,13.33
2023-10-23T14:44:53.097Z,13.26
2023-10-23T14:49:57.225Z,13.14
2023-10-23T14:55:01.618Z,13.05
2023-10-23T15:00:07.633Z,12.95
2023-10-23T15:05:12.888Z,12.81
2023-10-23T15:10:19.584Z,12.67
2023-10-23T15:15:26.985Z,12.52
2023-10-23T15:20:31.598Z,12.39
2023-10-23T15:25:35.680Z,12.24
2023-10-23T15:30:42.680Z,12.09
2023-10-23T15:35:46.835Z,11.95
2023-10-23T15:40:50.416Z,11.81
2023-10-23T15:45:56.612Z,11.75
2023-10-23T15:51:00.322Z,11.69
2023-10-23T15:56:07.523Z,11.56
2023-10-23T16:01:11.486Z,11.38
2023-10-23T16:06:15.552Z,11.29
2023-10-23T16:11:22.644Z,11.29
2023-10-23T16:16:26.969Z,11.22
2023-10-23T16:21:40.984Z,11.11
2023-10-23T16:26:44.894Z,10.99
2023-10-23T16:31:48.895Z,10.86
2023-10-23T16:36:52.766Z,10.75
2023-10-23T16:41:58.382Z,10.69
2023-10-23T16:47:03.611Z,10.65
2023-10-23T16:52:07.792Z,10.66
2023-10-23T16:57:11.939Z,10.55
2023-10-23T17:02:15.943Z,10.50
2023-10-23T17:07:19.829Z,10.41
2023-10-23T17:12:23.550Z,10.34
2023-10-23T17:17:27.234Z,10.30
2023-10-23T17:22:30.979Z,10.26
2023-10-23T17:27:34.609Z,10.23
2023-10-23T17:32:38.500Z,10.16
2023-10-23T17:37:42.457Z,10.09
2023-10-23T17:42:48.636Z,10.00
2023-10-23T17:47:55.330Z,9.93
2023-10-23T17:52:59.569Z,9.92
2023-10-23T17:58:09.107Z,9.90
2023-10-23T18:03:15.822Z,9.90
2023-10-23T18:08:23.061Z,9.85
2023-10-23T18:13:26.883Z,9.75
2023-10-23T18:18:31.093Z,9.70
2023-10-23T18:23:35.777Z,9.61
2023-10-23T18:28:44.438Z,9.52
2023-10-23T18:33:48.201Z,9.46
2023-10-23T18:38:52.383Z,9.42
2023-10-23T18:44:02.361Z,9.34
2023-10-23T18:49:08.722Z,9.29
2023-10-23T18:54:16.160Z,9.18
2023-10-23T18:59:20.671Z,9.15
2023-10-23T19:04:25.374Z,9.06
2023-10-23T19:09:29.166Z,9.02
2023-10-23T19:14:40.419Z,9.01
2023-10-23T19:19:44.182Z,8.95
2023-10-23T19:25:10.613Z,8.98
2023-10-23T19:30:15.648Z,8.93
2023-10-23T19:35:22.902Z,8.89
2023-10-23T19:40:28.868Z,8.86
2023-10-23T19:45:33.285Z,8.82
2023-10-23T19:50:46.973Z,8.70
2023-10-23T19:55:53.182Z,8.63
2023-10-23T20:01:04.115Z,8.57
2023-10-23T20:06:13.785Z,8.51
2023-10-23T20:11:17.918Z,8.46
2023-10-23T20:16:46.676Z,8.44
2023-10-23T20:22:05.140Z,8.41
2023-10-23T20:27:35.454Z,8.33
2023-10-23T20:32:53.833Z,8.23
2023-10-23T20:38:40.710Z,8.11
2023-10-23T20:43:50.082Z,8.05
2023-10-23T20:49:23.367Z,7.98
2023-10-23T20:54:33.693Z,7.88
2023-10-23T20:59:58.590Z,7.77
2023-10-23T21:05:14.585Z,7.67
2023-10-23T21:10:37.464Z,7.57
2023-10-23T21:15:57.849Z,7.46
2023-10-23T21:21:07.670Z,7.37
2023-10-23T21:26:34.921Z,7.33
2023-10-23T21:31:38.955Z,7.28
2023-10-23T21:37:04.006Z,7.19
2023-10-23T21:42:10.477Z,7.12
2023-10-23T21:47:35.117Z,7.06
2023-10-23T21:53:13.628Z,6.98
2023-10-23T21:59:02.479Z,6.91
2023-10-23T22:04:29.917Z,6.78
2023-10-23T22:09:57.243Z,6.72
2023-10-23T22:15:32.979Z,6.70
2023-10-23T22:20:55.202Z,6.70
2023-10-23T22:26:04.835Z,6.61
2023-10-23T22:31:17.654Z,6.54
2023-10-23T22:36:28.275Z,6.51
2023-10-23T22:41:31.907Z,6.48
2023-10-23T22:46:35.448Z,6.44
2023-10-23T22:51:39.445Z,6.35
2023-10-23T22:56:43.575Z,6.26
2023-10-23T23:01:49.441Z,6.20
2023-10-23T23:06:53.991Z,6.11
2023-10-23T23:11:58.178Z,6.02
2023-10-23T23:17:04.050Z,5.94
2023-10-23T23:30:49.342Z,5.75
2023-10-23T23:36:07.665Z,5.64
2023-10-23T23:42:01.684Z,5.55
2023-10-23T23:47:45.691Z,5.42
2023-10-23T23:52:56.854Z,5.27
2023-10-23T23:58:43.826Z,5.23
